Historyczne dane pomiarowe

Dodano dane terminowe – wersja testowa.

Dane z okresu 1951-2019

Wersja bazy: 1.34 [2019-03-16, lista zmian], aktualizacja planowana na 2019-04-15

Dane meteo z obszaru Polski uzyskane na podstawie danych udostępnionych przez Instytut Meteorologii i Gospodarki Wodnej – Państwowy Instytut Badawczy.

 

Wybierz Datę:    

       

TemperaturaWilgotnośćWiatrCiśnienieOpadyŚniegCzas trwania zjawisk
 Stacja t tx tn tng RH VA  wxwx mslp ppp RRR   cm mm wxwxwxwxwxwxwx
1999-08-14 12.5 20.0 6.8--- 3.3 1.0---- 0.2------------
1999-08-13 13.7 18.5 9.4--- 6.3 1.0---- 0.0------------
1999-08-12 15.4 19.7 12.8--- 7.3 0.3---- 0.0------------
1999-08-11 18.4 23.5 14.2--- 6.3 0.7---- 3.4------------
1999-08-10 19.8 27.4 16.1--- 7.0 1.0---- 27.9------------
1999-08-09 20.4 29.0 15.4--- 3.3 0.7---- 8.2------------
1999-08-08 21.4 27.5 16.8--- 3.0 0.7---- 0.0------------
1999-08-07 20.6 28.5 13.2--- 5.0 1.7---- 6.2------------
1999-08-06 20.6 28.5 15.2--- 5.0 1.0---- 0.0------------
1999-08-05 19.4 27.0 13.8--- 5.0 0.7---- 4.5------------
1999-08-04 17.8 24.9 9.9--- 2.0 0.7---- 0.0------------
1999-08-03 17.1 23.4 11.1--- 3.7 0.3---- 0.0------------
1999-08-02 16.5 23.1 10.8--- 4.7 0.7---- 0.0------------
1999-08-01 18.0 25.0 10.1--- 3.3 0.0---- 0.0------------
1999-07-31 16.1 25.0 8.4--- 2.3 0.3---- 0.0------------
1999-07-30 15.4 23.4 8.0--- 2.0 0.3---- 0.0------------
1999-07-29 16.1 23.0 8.9--- 1.3 1.3---- 0.0------------
1999-07-28 18.3 23.5 13.0--- 1.3 1.0---- 0.0------------
1999-07-27 18.5 23.7 14.3--- 7.0 1.3---- 0.2------------
1999-07-26 19.2 26.0 12.2--- 2.7 1.0---- 0.0------------
1999-07-25 17.6 24.8 11.3--- 2.0 1.0---- 0.0------------
1999-07-24 15.2 19.6 10.4--- 6.7 0.7---- 0.1------------
1999-07-23 14.2 18.5 12.0--- 7.7 1.7---- 17.8------------
1999-07-22 17.9 22.0 14.3--- 6.3 0.3---- 9.8------------
1999-07-21 19.9 28.0 15.0--- 4.7 1.0---- 2.7------------
1999-07-20 19.7 28.0 11.3--- 1.3 1.0---- 0.0------------
1999-07-19 18.5 27.3 9.7--- 2.3 0.3---- 0.0------------
1999-07-18 17.3 25.8 8.5--- 1.0 0.7---- 0.0------------
1999-07-17 15.8 23.2 8.4--- 2.0 1.0---- 0.0------------
1999-07-16 16.0 21.2 11.8--- 5.3 1.0---- 0.0------------
1999-07-15 15.8 19.2 13.5--- 5.7 1.0---- 1.0------------
1999-07-14 19.6 25.6 17.2--- 6.3 0.7---- 7.2------------
1999-07-13 19.8 25.1 15.3--- 7.7 1.3---- 7.1------------
1999-07-12 19.1 24.7 13.8--- 4.3 0.3---- 4.2------------
1999-07-11 18.0 21.2 12.4--- 6.3 0.3---- 3.2------------
1999-07-10 20.4 22.6 18.2--- 5.3 1.7---- 0.0------------
1999-07-09 17.3 19.8 14.7--- 8.0 1.0---- 1.6------------
1999-07-08 16.9 21.4 14.5--- 7.3 1.0---- 7.0------------
1999-07-07 21.3 28.7 17.9--- 7.3 1.0---- 35.2------------
1999-07-06 24.7 31.1 16.3--- 0.7 2.0---- 0.0------------
1999-07-05 21.5 30.5 14.8--- 0.7 2.3---- 0.0------------
1999-07-04 21.6 31.4 11.2--- 0.3 1.3---- 0.0------------
1999-07-03 19.5 25.8 13.3--- 1.7 1.0---- 0.0------------
1999-07-02 18.6 24.6 12.8--- 3.7 0.7---- 0.0------------
1999-07-01 18.0 24.7 12.0--- 5.0 1.3---- 0.0------------
1999-06-30 18.6 25.5 11.3--- 5.0 1.0---- 0.0------------
1999-06-29 18.6 23.6 13.8--- 1.3 1.0---- 0.0------------
1999-06-28 18.4 27.8 12.8--- 4.3 2.0---- 0.7------------
1999-06-27 18.5 27.0 9.4--- 2.0 1.0---- 0.0------------
1999-06-26 15.5 24.0 6.4--- 3.0 1.0---- 0.0------------
1999-06-25 11.5 18.9 3.0--- 2.0 0.7---- 0.0------------
1999-06-24 10.9 15.5 6.5--- 4.0 1.0---- 0.0------------
1999-06-23 8.9 10.5 6.9--- 8.0 3.7---- 1.1------------
1999-06-22 9.4 14.0 7.7--- 8.0 6.0---- 65.1------------
1999-06-21 16.0 20.5 13.4--- 7.7 1.0---- 33.7------------
1999-06-20 16.7 21.0 13.8--- 8.0 1.0---- 3.9------------
1999-06-19 13.8 15.6 12.6--- 8.0 0.0---- 0.3------------
1999-06-18 15.2 18.0 13.8--- 8.0 1.3---- 26.1------------
1999-06-17 17.2 20.0 15.2--- 8.0 1.0---- 47.9------------
1999-06-16 16.3 19.4 14.3--- 8.0 1.0---- 1.0------------
305.5 ms

 

Źródłem pochodzenia danych jest Instytut Meteorologii i Gospodarki Wodnej – Państwowy Instytut Badawczy. Dane Instytutu Meteorologii i Gospodarki Wodnej – Państwowego Instytutu Badawczego zostały przetworzone.

Dane źródłowe można odnaleźć na stronie https://dane.imgw.pl